PWSweather.com
Personal Weather Stations
Station Observations
WIKENOS15
47th Ave & 30th St, Kenosha, WI 53144

47th Ave & 30th StKenosha, WI 53144

Lat: 42.612, Lon: -87.866

Elevation: 697

Station Type: Oregon Scientific 100N

Latest ConditionsUpdated 12:30:00 PM CDT Saturday, Mar 28, 2015
Currently Today's Max Today's Min Today's Average
Temperature 31.7°F-0.2°C 32.4°F0.2°C 16.5°F-8.6°C 22.3°F-5.4°C
Dew Point 20.1°F-6.6°C 21.5°F-5.8°C 13.2°F-10.4°C 16.2°F-8.8°C
Winds 0.4 mph ESE0.6 kmh ESE 3.1 mph SE5.0 kmh SE - 0.8 mph 1.3 kmh
Wind Gusts 3.0 mph4.8 kmh 6.0 mph9.7 kmh - -
Humidity 62% 88% 60% 78%
Pressure 30.37 in1028.4 mb 30.37 in1028.4 mb 30.24 in1024.0 mb -
Hour Temp Dew Point Humidity Winds Wind Gusts Pressure Precip Precip Rate Daily Precip Total
12:30 PM 31.7°F-0.2°C 20.1°F-6.6°C 62% 0.4 mph ESE0.6 kmh ESE 3.0 mph4.8 kmh 30.37 in1028.4 mb - 0.00 in0.0 mm 0.00 in0.0 mm
12:15 PM 31.8°F-0.1°C 20.7°F-6.3°C 63% 2.4 mph SE3.9 kmh SE 3.0 mph4.8 kmh 30.37 in1028.4 mb - 0.00 in0.0 mm 0.00 in0.0 mm
12:00 PM 32.4°F0.2°C 20.1°F-6.6°C 60% 1.6 mph ENE2.6 kmh ENE 3.0 mph4.8 kmh 30.37 in1028.4 mb - 0.00 in0.0 mm 0.00 in0.0 mm
11:45 AM 32.0°F0.0°C 21.5°F-5.8°C 65% 0.9 mph NE1.4 kmh NE 1.5 mph2.4 kmh 30.37 in1028.4 mb - 0.00 in0.0 mm 0.00 in0.0 mm
11:30 AM 31.2°F-0.4°C 21.2°F-6.0°C 66% 1.9 mph ENE3.1 kmh ENE 3.7 mph6.0 kmh 30.37 in1028.4 mb - 0.00 in0.0 mm 0.00 in0.0 mm
11:15 AM 31.2°F-0.4°C 19.6°F-6.9°C 62% 3.1 mph SE5.0 kmh SE 6.0 mph9.7 kmh 30.37 in1028.4 mb - 0.00 in0.0 mm 0.00 in0.0 mm
11:00 AM 31.0°F-0.6°C 20.6°F-6.3°C 65% 2.1 mph ENE3.4 kmh ENE 2.3 mph3.7 kmh 30.37 in1028.4 mb - 0.00 in0.0 mm 0.00 in0.0 mm
10:45 AM 31.6°F-0.2°C 20.1°F-6.6°C 62% 2.6 mph ESE4.2 kmh ESE 6.0 mph9.7 kmh 30.37 in1028.4 mb - 0.00 in0.0 mm 0.00 in0.0 mm
10:30 AM 31.0°F-0.6°C 19.9°F-6.7°C 63% 0.9 mph E1.4 kmh E 2.3 mph3.7 kmh 30.37 in1028.4 mb - 0.00 in0.0 mm 0.00 in0.0 mm
10:15 AM 30.3°F-0.9°C 19.2°F-7.1°C 63% 1.2 mph SSE1.9 kmh SSE 3.0 mph4.8 kmh 30.36 in1028.1 mb - 0.00 in0.0 mm 0.00 in0.0 mm
10:00 AM 30.2°F-1.0°C 19.5°F-6.9°C 64% 1.6 mph E2.6 kmh E 3.7 mph6.0 kmh 30.36 in1028.1 mb - 0.00 in0.0 mm 0.00 in0.0 mm
09:45 AM 29.9°F-1.2°C 18.8°F-7.3°C 63% 1.6 mph N2.6 kmh N 3.0 mph4.8 kmh 30.36 in1028.1 mb - 0.00 in0.0 mm 0.00 in0.0 mm
09:30 AM 29.6°F-1.3°C 19.3°F-7.1°C 65% 1.3 mph N2.1 kmh N 1.5 mph2.4 kmh 30.36 in1028.1 mb - 0.00 in0.0 mm 0.00 in0.0 mm
09:15 AM 28.9°F-1.7°C 19.7°F-6.8°C 68% 1.2 mph ESE1.9 kmh ESE 1.5 mph2.4 kmh 30.35 in1027.8 mb - 0.00 in0.0 mm 0.00 in0.0 mm
09:00 AM 28.5°F-1.9°C 18.9°F-7.3°C 67% 1.1 mph SE1.8 kmh SE 2.3 mph3.7 kmh 30.35 in1027.8 mb - 0.00 in0.0 mm 0.00 in0.0 mm
08:45 AM 27.4°F-2.6°C 20.2°F-6.6°C 74% 0.3 mph NE0.5 kmh NE 0.8 mph1.3 kmh 30.34 in1027.4 mb - 0.00 in0.0 mm 0.00 in0.0 mm
08:30 AM 24.9°F-3.9°C 19.0°F-7.2°C 78% 0.8 mph N1.3 kmh N 1.5 mph2.4 kmh 30.34 in1027.4 mb - 0.00 in0.0 mm 0.00 in0.0 mm
08:15 AM 23.0°F-5.0°C 18.6°F-7.4°C 83% Calm Calm -- 30.33 in1027.1 mb - 0.00 in0.0 mm 0.00 in0.0 mm
08:00 AM 20.9°F-6.2°C 17.1°F-8.3°C 85% Calm Calm -- 30.32 in1026.8 mb - 0.00 in0.0 mm 0.00 in0.0 mm
07:45 AM 19.6°F-6.9°C 16.1°F-8.8°C 86% 1.0 mph N1.6 kmh N 2.3 mph3.7 kmh 30.32 in1026.8 mb - 0.00 in0.0 mm 0.00 in0.0 mm
07:30 AM 18.0°F-7.8°C 15.0°F-9.4°C 88% 0.9 mph N1.4 kmh N 1.5 mph2.4 kmh 30.32 in1026.8 mb - 0.00 in0.0 mm 0.00 in0.0 mm
07:15 AM 17.0°F-8.3°C 14.1°F-9.9°C 88% 0.8 mph N1.3 kmh N 1.5 mph2.4 kmh 30.31 in1026.4 mb - 0.00 in0.0 mm 0.00 in0.0 mm
07:00 AM 16.7°F-8.5°C 13.8°F-10.1°C 88% 0.3 mph N0.5 kmh N 0.8 mph1.3 kmh 30.31 in1026.4 mb - 0.00 in0.0 mm 0.00 in0.0 mm
06:45 AM 16.5°F-8.6°C 13.6°F-10.2°C 88% Calm Calm -- 30.30 in1026.1 mb - 0.00 in0.0 mm 0.00 in0.0 mm
06:30 AM 16.5°F-8.6°C 13.3°F-10.4°C 87% Calm Calm 0.8 mph1.3 kmh 30.30 in1026.1 mb - 0.00 in0.0 mm 0.00 in0.0 mm
06:15 AM 16.6°F-8.6°C 13.4°F-10.3°C 87% 0.7 mph N1.1 kmh N 1.5 mph2.4 kmh 30.29 in1025.7 mb - 0.00 in0.0 mm 0.00 in0.0 mm
06:00 AM 16.5°F-8.6°C 13.3°F-10.4°C 87% 0.5 mph N0.8 kmh N 1.5 mph2.4 kmh 30.29 in1025.7 mb - 0.00 in0.0 mm 0.00 in0.0 mm
05:45 AM 16.7°F-8.5°C 13.2°F-10.4°C 86% 1.0 mph N1.6 kmh N 1.5 mph2.4 kmh 30.28 in1025.4 mb - 0.00 in0.0 mm 0.00 in0.0 mm
05:30 AM 17.0°F-8.3°C 13.5°F-10.3°C 86% 0.5 mph N0.8 kmh N 1.5 mph2.4 kmh 30.28 in1025.4 mb - 0.00 in0.0 mm 0.00 in0.0 mm
05:15 AM 16.9°F-8.4°C 13.4°F-10.3°C 86% 0.6 mph N1.0 kmh N 1.5 mph2.4 kmh 30.27 in1025.1 mb - 0.00 in0.0 mm 0.00 in0.0 mm
05:00 AM 17.3°F-8.2°C 13.3°F-10.4°C 84% Calm Calm -- 30.27 in1025.1 mb - 0.00 in0.0 mm 0.00 in0.0 mm
04:45 AM 17.7°F-7.9°C 13.7°F-10.2°C 84% 0.6 mph N1.0 kmh N 0.8 mph1.3 kmh 30.26 in1024.7 mb - 0.00 in0.0 mm 0.00 in0.0 mm
04:30 AM 17.7°F-7.9°C 13.7°F-10.2°C 84% 0.1 mph N0.2 kmh N 0.8 mph1.3 kmh 30.26 in1024.7 mb - 0.00 in0.0 mm 0.00 in0.0 mm
04:15 AM 17.7°F-7.9°C 13.7°F-10.2°C 84% 0.5 mph N0.8 kmh N 1.5 mph2.4 kmh 30.25 in1024.4 mb - 0.00 in0.0 mm 0.00 in0.0 mm
04:00 AM 18.0°F-7.8°C 14.0°F-10.0°C 84% 0.1 mph N0.2 kmh N 0.8 mph1.3 kmh 30.26 in1024.7 mb - 0.00 in0.0 mm 0.00 in0.0 mm
03:45 AM 18.1°F-7.7°C 13.8°F-10.1°C 83% 0.2 mph N0.3 kmh N 0.8 mph1.3 kmh 30.25 in1024.4 mb - 0.00 in0.0 mm 0.00 in0.0 mm
03:30 AM 18.8°F-7.3°C 13.9°F-10.1°C 81% 0.1 mph N0.2 kmh N 0.8 mph1.3 kmh 30.25 in1024.4 mb - 0.00 in0.0 mm 0.00 in0.0 mm
03:15 AM 18.9°F-7.3°C 14.0°F-10.0°C 81% 0.9 mph N1.4 kmh N 1.5 mph2.4 kmh 30.25 in1024.4 mb - 0.00 in0.0 mm 0.00 in0.0 mm
03:00 AM 19.4°F-7.0°C 14.3°F-9.8°C 80% 0.5 mph N0.8 kmh N 0.8 mph1.3 kmh 30.25 in1024.4 mb - 0.00 in0.0 mm 0.00 in0.0 mm
02:45 AM 19.4°F-7.0°C 14.5°F-9.7°C 81% 1.2 mph N1.9 kmh N 1.5 mph2.4 kmh 30.25 in1024.4 mb - 0.00 in0.0 mm 0.00 in0.0 mm
02:30 AM 19.3°F-7.1°C 14.7°F-9.6°C 82% 0.3 mph N0.5 kmh N 1.5 mph2.4 kmh 30.25 in1024.4 mb - 0.00 in0.0 mm 0.00 in0.0 mm
02:15 AM 19.3°F-7.1°C 14.7°F-9.6°C 82% 0.5 mph N0.8 kmh N 0.8 mph1.3 kmh 30.25 in1024.4 mb - 0.00 in0.0 mm 0.00 in0.0 mm
02:00 AM 19.4°F-7.0°C 14.8°F-9.6°C 82% 0.3 mph N0.5 kmh N 1.5 mph2.4 kmh 30.25 in1024.4 mb - 0.00 in0.0 mm 0.00 in0.0 mm
01:45 AM 19.2°F-7.1°C 14.6°F-9.7°C 82% 0.3 mph N0.5 kmh N 0.8 mph1.3 kmh 30.25 in1024.4 mb - 0.00 in0.0 mm 0.00 in0.0 mm
01:30 AM 18.9°F-7.3°C 14.6°F-9.7°C 83% 0.5 mph N0.8 kmh N 1.5 mph2.4 kmh 30.25 in1024.4 mb - 0.00 in0.0 mm 0.00 in0.0 mm
01:15 AM 18.8°F-7.3°C 14.8°F-9.6°C 84% 0.4 mph N0.6 kmh N 0.8 mph1.3 kmh 30.25 in1024.4 mb - 0.00 in0.0 mm 0.00 in0.0 mm
01:00 AM 18.6°F-7.4°C 14.6°F-9.7°C 84% 0.5 mph N0.8 kmh N 0.8 mph1.3 kmh 30.24 in1024.0 mb - 0.00 in0.0 mm 0.00 in0.0 mm
12:45 AM 18.8°F-7.3°C 14.8°F-9.6°C 84% 0.9 mph N1.4 kmh N 1.5 mph2.4 kmh 30.24 in1024.0 mb - 0.00 in0.0 mm 0.00 in0.0 mm
12:30 AM 18.9°F-7.3°C 14.9°F-9.5°C 84% Calm Calm -- 30.24 in1024.0 mb - 0.00 in0.0 mm 0.00 in0.0 mm
12:15 AM 18.9°F-7.3°C 14.9°F-9.5°C 84% Calm Calm -- 30.24 in1024.0 mb - 0.00 in0.0 mm 0.00 in0.0 mm
12:00 AM 19.2°F-7.1°C 15.2°F-9.3°C 84% 0.5 mph N0.8 kmh N 0.8 mph1.3 kmh 30.24 in1024.0 mb - 0.00 in0.0 mm 0.00 in0.0 mm